createdAt,value
2018-09-05T00:05:39.417Z,7.00
2018-09-05T00:08:33.075Z,7.27
2018-09-05T00:11:04.841Z,8.00
2018-09-05T00:13:35.311Z,7.37
2018-09-05T00:16:05.288Z,7.17
2018-09-05T00:18:34.614Z,7.00
2018-09-05T00:21:29.580Z,7.87
2018-09-05T00:24:02.126Z,7.50
2018-09-05T00:26:31.565Z,7.70
2018-09-05T00:29:04.952Z,7.67
2018-09-05T00:31:34.370Z,8.00
2018-09-05T00:34:04.219Z,7.53
2018-09-05T00:36:34.505Z,7.13
2018-09-05T00:39:05.746Z,7.57
2018-09-05T00:41:35.312Z,8.63
2018-09-05T00:44:07.959Z,7.37
2018-09-05T00:46:48.256Z,8.33
2018-09-05T00:49:18.223Z,7.90
2018-09-05T00:51:46.858Z,7.40
2018-09-05T00:54:15.451Z,7.77
2018-09-05T00:56:44.134Z,7.83
2018-09-05T00:59:12.714Z,7.13
2018-09-05T01:01:43.043Z,7.87
2018-09-05T01:04:12.118Z,8.23
2018-09-05T01:06:41.827Z,8.53
2018-09-05T01:09:11.726Z,8.50
2018-09-05T01:12:17.595Z,7.90
2018-09-05T01:14:46.670Z,8.00
2018-09-05T01:17:15.312Z,8.60
2018-09-05T01:19:44.638Z,8.27
2018-09-05T01:22:14.134Z,7.37
2018-09-05T01:24:44.420Z,7.60
2018-09-05T01:27:30.548Z,8.53
2018-09-05T01:30:14.676Z,8.47
2018-09-05T01:32:44.582Z,8.60
2018-09-05T01:35:13.227Z,8.57
2018-09-05T01:37:42.059Z,9.30
2018-09-05T01:41:14.160Z,8.37
2018-09-05T01:43:44.724Z,8.27
2018-09-05T01:46:14.097Z,8.87
2018-09-05T01:48:42.848Z,9.10
2018-09-05T01:51:11.968Z,8.80
2018-09-05T01:53:41.115Z,8.20
2018-09-05T01:56:10.655Z,8.30
2018-09-05T01:58:40.202Z,8.07
2018-09-05T02:01:09.893Z,8.37
2018-09-05T02:03:39.662Z,8.53
2018-09-05T02:06:09.703Z,9.43
2018-09-05T02:08:41.975Z,7.60
2018-09-05T02:11:11.215Z,9.60
2018-09-05T02:13:40.849Z,8.13
2018-09-05T02:16:10.192Z,8.63
2018-09-05T02:18:39.778Z,8.33
2018-09-05T02:21:09.278Z,9.67
2018-09-05T02:23:38.833Z,9.27
2018-09-05T02:26:08.468Z,9.40
2018-09-05T02:28:38.257Z,9.10
2018-09-05T02:31:16.059Z,9.33
2018-09-05T02:33:45.481Z,9.73
2018-09-05T02:36:15.261Z,8.90
2018-09-05T02:38:45.042Z,8.63
2018-09-05T02:41:14.776Z,9.73
2018-09-05T02:43:48.806Z,8.77
2018-09-05T02:46:17.404Z,9.13
2018-09-05T02:48:46.029Z,8.60
2018-09-05T02:51:15.490Z,8.97
2018-09-05T02:53:44.154Z,8.50
2018-09-05T02:56:12.891Z,9.00
2018-09-05T02:58:41.942Z,9.07
2018-09-05T03:01:11.277Z,10.47
2018-09-05T03:03:40.645Z,8.43
2018-09-05T03:06:10.187Z,9.70
2018-09-05T03:08:39.486Z,10.30
2018-09-05T03:11:08.849Z,10.20
2018-09-05T03:13:46.465Z,11.10
2018-09-05T03:16:16.135Z,14.53
2018-09-05T03:18:44.847Z,16.17
2018-09-05T03:21:13.436Z,15.60
2018-09-05T03:23:42.463Z,13.93
2018-09-05T03:27:05.654Z,13.43
2018-09-05T03:30:03.416Z,14.17
2018-09-05T03:32:32.783Z,19.17
2018-09-05T03:35:02.527Z,21.23
2018-09-05T03:37:43.528Z,18.80
2018-09-05T03:40:13.443Z,20.23
2018-09-05T03:42:42.423Z,18.67
2018-09-05T03:45:11.777Z,20.43
2018-09-05T03:47:41.068Z,19.97
2018-09-05T03:50:10.856Z,23.50
2018-09-05T03:52:40.213Z,22.07
2018-09-05T03:55:09.594Z,21.97
2018-09-05T03:57:39.222Z,23.60
2018-09-05T04:00:09.113Z,25.50
2018-09-05T04:02:38.356Z,23.27
2018-09-05T04:05:08.044Z,24.87
2018-09-05T04:07:39.198Z,22.70
2018-09-05T04:10:08.570Z,24.77
2018-09-05T04:12:40.789Z,24.43
2018-09-05T04:15:11.066Z,25.43
2018-09-05T04:17:40.533Z,23.80
2018-09-05T04:20:10.645Z,24.83
2018-09-05T04:22:40.036Z,29.53
2018-09-05T04:25:09.285Z,27.70
2018-09-05T04:27:38.909Z,27.20
2018-09-05T04:30:08.693Z,26.40
2018-09-05T04:33:02.725Z,26.50
2018-09-05T04:35:32.979Z,25.50
2018-09-05T04:38:07.153Z,27.13
2018-09-05T04:44:02.465Z,26.20
2018-09-05T04:46:33.218Z,26.27
2018-09-05T04:49:07.338Z,24.53
2018-09-05T04:51:36.860Z,26.97
2018-09-05T04:54:07.515Z,25.23
2018-09-05T04:56:36.977Z,22.80
2018-09-05T04:59:05.891Z,24.20
2018-09-05T05:01:35.405Z,20.03
2018-09-05T05:07:17.875Z,22.60
2018-09-05T05:09:46.872Z,23.10
2018-09-05T05:12:19.677Z,21.83
2018-09-05T05:15:11.599Z,23.47
2018-09-05T05:17:41.356Z,23.73
2018-09-05T05:20:15.478Z,24.53
2018-09-05T05:23:17.458Z,25.37
2018-09-05T05:25:47.190Z,24.20
2018-09-05T05:28:15.791Z,24.20
2018-09-05T05:30:45.323Z,19.20
2018-09-05T05:33:14.073Z,26.20
2018-09-05T05:35:43.625Z,25.07
2018-09-05T05:38:40.753Z,26.50
2018-09-05T05:41:10.294Z,23.43
2018-09-05T05:43:39.520Z,28.60
2018-09-05T05:46:09.389Z,27.77
2018-09-05T05:48:39.851Z,28.67
2018-09-05T05:51:11.031Z,29.23
2018-09-05T05:53:40.806Z,27.27
2018-09-05T05:56:49.660Z,28.40
2018-09-05T05:59:18.221Z,27.00
2018-09-05T06:01:47.612Z,27.47
2018-09-05T06:04:16.959Z,27.63
2018-09-05T06:06:46.659Z,29.87
2018-09-05T06:09:15.782Z,30.30
2018-09-05T06:11:46.016Z,30.50
2018-09-05T06:14:15.395Z,29.40
2018-09-05T06:16:44.143Z,31.67
2018-09-05T06:19:15.427Z,29.53
2018-09-05T06:21:44.582Z,28.17
2018-09-05T06:24:40.014Z,29.13
2018-09-05T06:27:09.389Z,28.40
2018-09-05T06:32:34.496Z,28.17
2018-09-05T06:35:06.432Z,29.80
2018-09-05T06:38:07.420Z,31.30
2018-09-05T06:40:41.081Z,30.33
2018-09-05T06:43:17.661Z,30.57
2018-09-05T06:45:46.176Z,29.90
2018-09-05T06:48:38.968Z,31.00
2018-09-05T06:51:08.986Z,29.40
2018-09-05T06:53:39.916Z,30.07
2018-09-05T06:56:09.670Z,30.20
2018-09-05T06:59:51.138Z,29.03
2018-09-05T07:02:19.785Z,28.63
2018-09-05T07:04:49.074Z,28.90
2018-09-05T07:07:17.725Z,31.17
2018-09-05T07:10:09.212Z,29.23
2018-09-05T07:12:38.681Z,26.93
2018-09-05T07:15:07.939Z,27.17
2018-09-05T07:17:37.423Z,27.27
2018-09-05T07:20:06.752Z,28.47
2018-09-05T07:22:36.108Z,26.07
2018-09-05T07:25:32.619Z,28.57
2018-09-05T07:28:03.821Z,28.10
2018-09-05T07:30:33.825Z,27.40
2018-09-05T07:33:03.233Z,27.27
2018-09-05T07:35:33.244Z,26.63
2018-09-05T07:38:02.797Z,26.67
2018-09-05T07:40:33.501Z,24.57
2018-09-05T07:43:03.417Z,24.03
2018-09-05T07:45:33.961Z,24.30
2018-09-05T07:48:03.828Z,24.43
2018-09-05T07:50:33.684Z,24.53
2018-09-05T07:53:03.581Z,24.20
2018-09-05T07:55:45.502Z,23.50
2018-09-05T07:58:14.343Z,24.70
2018-09-05T08:00:43.443Z,23.80
2018-09-05T08:03:12.720Z,25.13
2018-09-05T08:05:41.939Z,23.37
2018-09-05T08:08:11.346Z,23.67
2018-09-05T08:10:40.813Z,23.03
2018-09-05T08:13:11.094Z,22.87
2018-09-05T08:15:40.598Z,24.20
2018-09-05T08:18:09.903Z,23.13
2018-09-05T08:20:39.388Z,23.73
2018-09-05T08:23:08.788Z,22.13
2018-09-05T08:25:38.213Z,21.27
2018-09-05T08:28:07.635Z,21.27
2018-09-05T08:30:36.896Z,22.00
2018-09-05T08:33:06.553Z,21.87
2018-09-05T08:35:36.482Z,20.20
2018-09-05T08:38:05.617Z,19.80
2018-09-05T08:40:36.287Z,21.37
2018-09-05T08:43:05.893Z,21.27
2018-09-05T08:45:35.406Z,19.40
2018-09-05T08:48:04.442Z,18.73
2018-09-05T08:50:33.978Z,18.03
2018-09-05T08:53:03.890Z,16.90
2018-09-05T08:55:35.130Z,18.50
2018-09-05T08:58:04.523Z,16.23
2018-09-05T09:00:34.208Z,17.70
2018-09-05T09:03:04.466Z,15.47
2018-09-05T09:05:34.072Z,15.07
2018-09-05T09:08:04.404Z,14.37
2018-09-05T09:10:36.766Z,14.47
2018-09-05T09:13:06.330Z,15.03
2018-09-05T09:15:36.473Z,12.47
2018-09-05T09:18:11.527Z,13.33
2018-09-05T09:20:41.195Z,13.77
2018-09-05T09:23:10.742Z,13.10
2018-09-05T09:25:39.867Z,11.17
2018-09-05T09:28:09.161Z,12.33
2018-09-05T09:30:39.413Z,12.17
2018-09-05T09:33:09.950Z,11.57
2018-09-05T09:35:39.315Z,11.93
2018-09-05T09:38:13.601Z,11.43
2018-09-05T09:40:43.018Z,12.10
2018-09-05T09:43:12.280Z,11.30
2018-09-05T09:45:41.631Z,11.73
2018-09-05T09:48:33.205Z,10.67
2018-09-05T09:51:03.658Z,10.90
2018-09-05T09:53:40.027Z,10.63
2018-09-05T09:56:09.371Z,10.07
2018-09-05T09:58:39.003Z,11.60
2018-09-05T10:01:49.251Z,9.47
2018-09-05T10:07:09.510Z,10.03
2018-09-05T10:09:44.839Z,9.27
2018-09-05T10:12:19.060Z,9.13
2018-09-05T10:14:58.396Z,9.67
2018-09-05T10:17:43.988Z,9.90
2018-09-05T10:20:17.979Z,9.67
2018-09-05T10:22:46.600Z,10.57
2018-09-05T10:25:35.853Z,10.10
2018-09-05T10:28:04.933Z,9.93
2018-09-05T10:30:34.910Z,9.43
2018-09-05T10:33:06.102Z,9.57
2018-09-05T10:35:35.447Z,9.53
2018-09-05T10:38:06.780Z,8.80
2018-09-05T10:40:37.421Z,8.93
2018-09-05T10:43:06.745Z,9.03
2018-09-05T10:45:36.169Z,9.47
2018-09-05T10:48:20.676Z,9.07
2018-09-05T10:50:49.236Z,9.60
2018-09-05T10:53:17.815Z,9.97
2018-09-05T10:55:46.672Z,8.80
2018-09-05T10:58:15.365Z,9.73
2018-09-05T11:00:45.264Z,9.80
2018-09-05T11:03:15.518Z,8.60
2018-09-05T11:05:45.368Z,8.23
2018-09-05T11:08:17.384Z,8.87
2018-09-05T11:11:15.967Z,8.97
2018-09-05T11:13:45.262Z,8.53
2018-09-05T11:16:18.067Z,8.83
2018-09-05T11:18:47.216Z,8.07
2018-09-05T11:21:16.412Z,9.20
2018-09-05T11:23:45.984Z,7.90
2018-09-05T11:26:15.286Z,8.60
2018-09-05T11:28:55.650Z,8.33
2018-09-05T11:31:24.928Z,8.73
2018-09-05T11:33:54.262Z,8.30
2018-09-05T11:36:53.547Z,8.13
2018-09-05T11:39:44.647Z,7.77
2018-09-05T11:42:25.272Z,8.47
2018-09-05T11:44:56.261Z,8.20
2018-09-05T11:47:25.180Z,8.20
2018-09-05T11:53:17.053Z,8.17
2018-09-05T11:55:46.885Z,8.13
2018-09-05T11:58:19.373Z,8.13
2018-09-05T12:00:48.112Z,7.20
2018-09-05T12:03:16.779Z,6.37
2018-09-05T12:05:46.026Z,6.80
2018-09-05T12:08:14.950Z,6.33
2018-09-05T12:10:44.075Z,6.60
2018-09-05T12:13:13.300Z,6.10
2018-09-05T12:15:42.521Z,6.17
2018-09-05T12:18:11.961Z,5.77
2018-09-05T12:20:40.979Z,6.63
2018-09-05T12:23:10.221Z,6.30
2018-09-05T12:25:39.930Z,7.10
2018-09-05T12:28:09.269Z,6.47
2018-09-05T12:30:38.503Z,5.90
2018-09-05T12:33:08.047Z,5.83
2018-09-05T12:35:37.194Z,5.80
2018-09-05T12:38:06.849Z,5.83
2018-09-05T12:40:36.738Z,5.27
2018-09-05T12:43:06.090Z,5.63
2018-09-05T12:45:35.280Z,4.83
2018-09-05T12:48:05.937Z,5.03
2018-09-05T12:50:36.349Z,5.40
2018-09-05T12:53:11.299Z,5.67
2018-09-05T12:55:40.712Z,6.37
2018-09-05T12:58:10.146Z,5.97
2018-09-05T13:00:39.632Z,5.30
2018-09-05T13:03:09.105Z,6.03
2018-09-05T13:05:38.586Z,5.70
2018-09-05T13:08:07.829Z,5.50
2018-09-05T13:10:37.210Z,5.90
2018-09-05T13:13:13.043Z,5.70
2018-09-05T13:15:42.386Z,5.47
2018-09-05T13:18:11.583Z,5.47
2018-09-05T13:20:40.994Z,5.20
2018-09-05T13:23:10.265Z,4.80
2018-09-05T13:25:40.914Z,5.07
2018-09-05T13:28:13.253Z,4.70
2018-09-05T13:30:43.219Z,5.00
2018-09-05T13:36:06.265Z,4.77
2018-09-05T13:38:36.468Z,5.07
2018-09-05T13:41:06.207Z,4.97
2018-09-05T13:43:39.430Z,5.03
2018-09-05T13:46:09.054Z,5.13
2018-09-05T13:48:38.561Z,4.63
2018-09-05T13:51:08.141Z,4.97
2018-09-05T13:53:37.312Z,4.97
2018-09-05T13:56:06.898Z,4.93
2018-09-05T13:58:36.490Z,5.83
2018-09-05T14:01:07.244Z,5.30
2018-09-05T14:03:36.785Z,4.90
2018-09-05T14:06:07.060Z,4.73
2018-09-05T14:08:36.746Z,5.17
2018-09-05T14:11:07.017Z,5.27
2018-09-05T14:13:36.765Z,5.23
2018-09-05T14:16:06.946Z,4.77
2018-09-05T14:18:36.525Z,5.60
2018-09-05T14:21:06.599Z,5.40
2018-09-05T14:23:37.084Z,5.37
2018-09-05T14:26:06.731Z,5.13
2018-09-05T14:28:37.715Z,4.47
2018-09-05T14:31:07.835Z,5.00
2018-09-05T14:33:49.730Z,4.60
2018-09-05T14:36:19.009Z,4.37
2018-09-05T14:38:49.006Z,5.17
2018-09-05T14:41:18.141Z,5.10
2018-09-05T14:43:47.843Z,4.70
2018-09-05T14:46:17.569Z,5.03
2018-09-05T14:48:47.536Z,4.67
2018-09-05T14:51:17.048Z,4.70
2018-09-05T14:53:46.869Z,4.70
2018-09-05T14:56:17.846Z,4.53
2018-09-05T14:58:47.683Z,4.53
2018-09-05T15:01:17.356Z,4.87
2018-09-05T15:03:52.802Z,4.23
2018-09-05T15:06:21.423Z,4.93
2018-09-05T15:08:52.133Z,4.57
2018-09-05T15:11:20.836Z,4.60
2018-09-05T15:13:49.831Z,4.57
2018-09-05T15:16:37.799Z,4.73
2018-09-05T15:19:47.596Z,4.03
2018-09-05T15:22:17.905Z,4.90
2018-09-05T15:24:47.380Z,3.90
2018-09-05T15:27:17.891Z,4.57
2018-09-05T15:29:47.546Z,4.47
2018-09-05T15:32:25.874Z,4.93
2018-09-05T15:35:04.988Z,4.60
2018-09-05T15:37:45.220Z,4.83
2018-09-05T15:40:15.617Z,4.70
2018-09-05T15:42:45.261Z,4.50
2018-09-05T15:45:14.802Z,5.00
2018-09-05T15:47:44.771Z,4.60
2018-09-05T15:50:14.628Z,4.73
2018-09-05T15:52:44.609Z,4.27
2018-09-05T15:55:15.198Z,4.60
2018-09-05T15:57:45.817Z,5.07
2018-09-05T16:00:15.604Z,4.60
2018-09-05T16:02:45.279Z,4.97
2018-09-05T16:05:14.743Z,4.07
2018-09-05T16:07:45.363Z,4.73
2018-09-05T16:10:15.376Z,4.60
2018-09-05T16:12:44.945Z,4.53
2018-09-05T16:15:18.577Z,4.73
2018-09-05T16:17:48.394Z,4.50
2018-09-05T16:20:35.877Z,5.57
2018-09-05T16:23:08.908Z,5.00
2018-09-05T16:25:38.834Z,4.60
2018-09-05T16:28:15.965Z,4.20
2018-09-05T16:30:45.549Z,4.87
2018-09-05T16:33:15.162Z,5.07
2018-09-05T16:35:43.732Z,4.40
2018-09-05T16:38:13.583Z,4.73
2018-09-05T16:40:43.692Z,5.10
2018-09-05T16:43:13.021Z,4.50
2018-09-05T16:45:42.790Z,5.37
2018-09-05T16:48:12.491Z,4.50
2018-09-05T16:50:42.568Z,5.03
2018-09-05T16:53:15.098Z,5.40
2018-09-05T16:55:44.533Z,5.17
2018-09-05T16:58:19.062Z,6.07
2018-09-05T17:00:48.508Z,5.00
2018-09-05T17:03:18.605Z,6.53
2018-09-05T17:06:15.026Z,6.07
2018-09-05T17:08:45.143Z,5.07
2018-09-05T17:11:14.843Z,6.47
2018-09-05T17:13:44.711Z,7.07
2018-09-05T17:16:14.498Z,7.57
2018-09-05T17:19:07.246Z,6.27
2018-09-05T17:21:38.365Z,6.13
2018-09-05T17:24:08.792Z,6.07
2018-09-05T17:26:38.828Z,6.27
2018-09-05T17:29:09.053Z,6.40
2018-09-05T17:31:38.664Z,6.10
2018-09-05T17:34:08.829Z,7.07
2018-09-05T17:36:38.398Z,7.10
2018-09-05T17:39:10.838Z,6.13
2018-09-05T17:41:43.331Z,7.30
2018-09-05T17:44:13.254Z,6.67
2018-09-05T17:46:43.598Z,7.27
2018-09-05T17:49:13.343Z,6.20
2018-09-05T17:51:43.270Z,6.60
2018-09-05T17:54:13.048Z,7.07
2018-09-05T17:56:42.945Z,6.17
2018-09-05T17:59:12.496Z,7.33
2018-09-05T18:01:42.644Z,7.57
2018-09-05T18:04:13.939Z,6.33
2018-09-05T18:06:43.720Z,5.87
2018-09-05T18:09:14.244Z,5.73
2018-09-05T18:11:45.087Z,6.57
2018-09-05T18:14:15.794Z,6.00
2018-09-05T18:16:46.621Z,6.37
2018-09-05T18:19:16.777Z,6.33
2018-09-05T18:21:47.056Z,6.83
2018-09-05T18:24:18.053Z,6.40
2018-09-05T18:26:47.404Z,5.73
2018-09-05T18:29:18.479Z,6.13
2018-09-05T18:31:48.463Z,6.00
2018-09-05T18:34:20.087Z,6.10
2018-09-05T18:36:50.225Z,6.80
2018-09-05T18:39:21.636Z,6.73
2018-09-05T18:41:50.615Z,7.07
2018-09-05T18:44:20.192Z,6.90
2018-09-05T18:46:49.470Z,6.83
2018-09-05T18:49:19.267Z,6.47
2018-09-05T18:51:49.313Z,6.67
2018-09-05T18:54:18.885Z,6.87
2018-09-05T18:56:48.563Z,6.80
2018-09-05T18:59:17.187Z,6.37
2018-09-05T19:01:47.322Z,6.60
2018-09-05T19:04:17.433Z,6.10
2018-09-05T19:06:47.864Z,6.67
2018-09-05T19:09:17.279Z,6.90
2018-09-05T19:11:48.005Z,7.47
2018-09-05T19:14:17.427Z,7.33
2018-09-05T19:16:47.340Z,6.47
2018-09-05T19:19:17.216Z,7.03
2018-09-05T19:21:47.481Z,6.73
2018-09-05T19:24:17.273Z,7.03
2018-09-05T19:26:47.351Z,6.70
2018-09-05T19:29:16.952Z,7.50
2018-09-05T19:31:46.898Z,7.80
2018-09-05T19:34:17.494Z,6.63
2018-09-05T19:36:47.141Z,6.87
2018-09-05T19:39:17.038Z,6.93
2018-09-05T19:41:48.015Z,8.03
2018-09-05T19:44:18.079Z,7.40
2018-09-05T19:46:48.571Z,6.47
2018-09-05T19:49:18.330Z,7.10
2018-09-05T19:51:48.079Z,7.50
2018-09-05T19:54:17.796Z,7.57
2018-09-05T19:56:48.096Z,7.20
2018-09-05T19:59:17.821Z,6.80
2018-09-05T20:01:47.975Z,7.63
2018-09-05T20:04:17.757Z,7.97
2018-09-05T20:06:48.050Z,7.17
2018-09-05T20:09:18.767Z,7.43
2018-09-05T20:11:48.295Z,6.63
2018-09-05T20:14:17.813Z,7.17
2018-09-05T20:16:47.480Z,7.07
2018-09-05T20:19:17.112Z,6.60
2018-09-05T20:21:48.476Z,7.80
2018-09-05T20:24:18.156Z,7.80
2018-09-05T20:26:48.252Z,8.07
2018-09-05T20:29:17.779Z,7.00
2018-09-05T20:31:47.850Z,7.90
2018-09-05T20:34:17.907Z,7.60
2018-09-05T20:36:48.061Z,7.40
2018-09-05T20:39:17.502Z,7.43
2018-09-05T20:41:47.150Z,7.40
2018-09-05T20:44:17.215Z,7.23
2018-09-05T20:46:47.121Z,6.60
2018-09-05T20:49:16.662Z,7.63
2018-09-05T20:51:48.516Z,7.43
2018-09-05T20:54:18.479Z,7.80
2018-09-05T20:56:48.212Z,7.03
2018-09-05T20:59:16.849Z,6.50
2018-09-05T21:01:46.949Z,6.60
2018-09-05T21:04:16.431Z,7.20
2018-09-05T21:06:46.267Z,7.13
2018-09-05T21:09:15.943Z,7.43
2018-09-05T21:11:45.819Z,7.67
2018-09-05T21:14:15.311Z,7.30
2018-09-05T21:16:45.146Z,7.07
2018-09-05T21:19:14.870Z,6.83
2018-09-05T21:21:45.623Z,18.13
2018-09-05T21:24:15.219Z,7.93
2018-09-05T21:27:09.072Z,6.93
2018-09-05T21:29:40.529Z,7.37
2018-09-05T21:32:11.104Z,7.47
2018-09-05T21:34:53.606Z,7.30
2018-09-05T21:37:22.710Z,7.73
2018-09-05T21:39:51.722Z,9.47
2018-09-05T21:42:21.156Z,7.70
2018-09-05T21:44:51.086Z,7.73
2018-09-05T21:47:20.385Z,7.17
2018-09-05T21:49:49.562Z,7.67
2018-09-05T21:52:19.579Z,7.07
2018-09-05T21:54:49.285Z,8.00
2018-09-05T21:57:18.665Z,8.53
2018-09-05T21:59:49.143Z,7.30
2018-09-05T22:02:19.750Z,6.90
2018-09-05T22:04:49.488Z,7.60
2018-09-05T22:07:19.526Z,6.93
2018-09-05T22:09:49.135Z,7.30
2018-09-05T22:12:17.683Z,8.03
2018-09-05T22:14:47.222Z,6.77
2018-09-05T22:17:16.974Z,7.33
2018-09-05T22:19:46.387Z,6.87
2018-09-05T22:22:16.049Z,8.57
2018-09-05T22:24:46.535Z,7.93
2018-09-05T22:27:16.498Z,7.77
2018-09-05T22:29:47.149Z,7.10
2018-09-05T22:32:17.305Z,7.23
2018-09-05T22:34:47.124Z,8.20
2018-09-05T22:37:17.527Z,7.43
2018-09-05T22:39:47.097Z,7.30
2018-09-05T22:42:16.732Z,7.20
2018-09-05T22:44:59.629Z,7.37
2018-09-05T22:47:43.017Z,7.37
2018-09-05T22:53:02.544Z,7.33
2018-09-05T22:56:22.215Z,7.87
2018-09-05T22:59:05.081Z,7.60
2018-09-05T23:07:17.625Z,7.67
2018-09-05T23:09:59.397Z,8.43
2018-09-05T23:12:46.945Z,7.90
2018-09-05T23:15:26.919Z,7.43
2018-09-05T23:19:09.992Z,7.57
2018-09-05T23:21:40.632Z,7.73
2018-09-05T23:24:11.319Z,8.00
2018-09-05T23:26:41.764Z,8.17
2018-09-05T23:29:17.629Z,7.93
2018-09-05T23:31:47.366Z,8.00
2018-09-05T23:34:16.757Z,8.37
2018-09-05T23:37:09.633Z,8.43
2018-09-05T23:39:41.053Z,8.00
2018-09-05T23:42:10.947Z,9.17
2018-09-05T23:44:41.215Z,8.37
2018-09-05T23:47:37.633Z,7.70
2018-09-05T23:50:45.069Z,8.47
2018-09-05T23:53:14.652Z,7.63
2018-09-05T23:55:44.466Z,8.43
2018-09-05T23:58:14.175Z,7.97
